Time;durP1;ratioP1;P1;durP2;ratioP2;P2;SDS_P1;SDS_P2;PMS_P1;PMS_P2;Temp;Humidity;BMP_temperature;BMP_pressure;BME280_temperature;BME280_humidity;BME280_pressure;Samples;Min_cycle;Max_cycle;Signal;HPM_P1;HPM_P2
2022/10/13 00:00:27;;;;;;;15.50;9.65;;;13.80;99.90;;;;;;5075034;28;20019;-68
2022/10/13 00:02:53;;;;;;;16.02;8.45;;;13.80;99.90;;;;;;5093037;28;20031;-68
2022/10/13 00:05:19;;;;;;;19.45;9.70;;;13.90;99.90;;;;;;5092695;28;20016;-67
2022/10/13 00:07:45;;;;;;;21.77;9.65;;;13.90;99.90;;;;;;5093336;28;20499;-67
2022/10/13 00:10:11;;;;;;;23.23;9.77;;;14.10;99.90;;;;;;5093028;28;20016;-67
2022/10/13 00:12:38;;;;;;;19.58;8.98;;;14.00;99.90;;;;;;5093108;28;20028;-68
2022/10/13 00:15:07;;;;;;;19.42;10.07;;;14.10;99.90;;;;;;5092508;28;20073;-68
2022/10/13 00:17:35;;;;;;;20.73;9.90;;;14.10;99.90;;;;;;5093259;28;20041;-67
2022/10/13 00:20:02;;;;;;;21.00;10.15;;;14.30;99.90;;;;;;5092558;28;20036;-67
2022/10/13 00:22:28;;;;;;;18.75;9.60;;;14.20;99.90;;;;;;5093063;28;20028;-67
2022/10/13 00:24:53;;;;;;;15.48;9.85;;;14.10;99.90;;;;;;5092892;28;20027;-67
2022/10/13 00:27:19;;;;;;;15.57;9.20;;;14.10;99.90;;;;;;5092714;28;20040;-68
2022/10/13 00:29:45;;;;;;;15.27;8.93;;;14.00;99.90;;;;;;5074954;28;20024;-67
2022/10/13 00:32:11;;;;;;;23.10;10.65;;;13.90;99.90;;;;;;5092628;28;20073;-68
2022/10/13 00:34:38;;;;;;;23.67;10.88;;;13.80;99.90;;;;;;5092718;28;20016;-67
2022/10/13 00:37:04;;;;;;;22.27;10.15;;;13.80;99.90;;;;;;5092547;28;20067;-67
2022/10/13 00:39:30;;;;;;;17.13;10.20;;;14.00;99.90;;;;;;5092968;28;20020;-67
2022/10/13 00:41:59;;;;;;;23.50;10.75;;;14.20;99.90;;;;;;5078127;28;20028;-67
2022/10/13 00:44:59;;;;;;;21.42;10.57;;;14.10;99.90;;;;;;5072266;28;20017;-68
2022/10/13 00:47:39;;;;;;;22.60;10.13;;;14.10;99.90;;;;;;5068921;28;20473;-67
2022/10/13 00:50:09;;;;;;;18.60;9.90;;;14.30;99.90;;;;;;5072174;28;20021;-67
2022/10/13 00:52:37;;;;;;;22.05;11.70;;;14.30;99.90;;;;;;5072471;28;20485;-67
2022/10/13 00:55:04;;;;;;;19.65;10.02;;;14.30;99.90;;;;;;5054205;28;20054;-67
2022/10/13 00:57:31;;;;;;;23.50;10.90;;;14.30;99.90;;;;;;5072238;28;20479;-67
2022/10/13 00:59:58;;;;;;;19.67;9.70;;;14.20;99.90;;;;;;5072133;28;20032;-68
2022/10/13 01:02:28;;;;;;;20.20;10.85;;;14.00;99.90;;;;;;5072280;28;20469;-67
2022/10/13 01:04:56;;;;;;;19.92;9.65;;;14.00;99.90;;;;;;5072261;28;20098;-67
2022/10/13 01:07:23;;;;;;;19.98;10.85;;;13.80;99.90;;;;;;5054324;28;20465;-67
2022/10/13 01:09:49;;;;;;;20.23;10.98;;;13.80;99.90;;;;;;5073131;28;20469;-67
2022/10/13 01:12:26;;;;;;;23.92;13.32;;;13.70;99.90;;;;;;5071890;28;20074;-67
2022/10/13 01:15:21;;;;;;;24.45;11.85;;;13.70;99.90;;;;;;5072460;28;20036;-67
2022/10/13 01:18:10;;;;;;;21.60;10.95;;;13.80;99.90;;;;;;5058939;28;20032;-67
2022/10/13 01:20:58;;;;;;;27.52;11.75;;;13.80;99.90;;;;;;5054239;28;20039;-67
2022/10/13 01:23:45;;;;;;;30.52;12.48;;;13.90;99.90;;;;;;5072196;28;20040;-67
2022/10/13 01:26:32;;;;;;;19.65;10.57;;;13.80;99.90;;;;;;5071907;28;20391;-67
2022/10/13 01:29:19;;;;;;;30.65;13.38;;;13.80;99.90;;;;;;5075781;28;20444;-67
2022/10/13 01:31:56;;;;;;;19.23;12.02;;;13.80;99.90;;;;;;5058008;28;20028;-67
2022/10/13 01:34:53;;;;;;;26.20;11.88;;;13.80;99.90;;;;;;5075310;28;20031;-67
2022/10/13 01:38:01;;;;;;;25.27;12.77;;;13.80;99.90;;;;;;5075678;28;20052;-67
2022/10/13 01:40:35;;;;;;;20.00;11.57;;;13.80;99.90;;;;;;4985866;28;20034;-67
2022/10/13 01:43:13;;;;;;;30.30;13.35;;;13.80;99.90;;;;;;5067317;28;20497;-67
2022/10/13 01:45:49;;;;;;;28.27;11.95;;;13.70;99.90;;;;;;5075671;28;20025;-67
2022/10/13 01:48:16;;;;;;;20.95;12.00;;;13.60;99.90;;;;;;5075088;28;20020;-67
2022/10/13 01:50:47;;;;;;;22.00;11.13;;;13.60;99.90;;;;;;5075653;28;20044;-67
2022/10/13 01:53:16;;;;;;;21.92;11.57;;;13.60;99.90;;;;;;5057396;28;20024;-67
2022/10/13 01:55:50;;;;;;;19.98;11.13;;;13.70;99.90;;;;;;5075329;28;20016;-67
2022/10/13 01:58:15;;;;;;;32.92;11.60;;;13.70;99.90;;;;;;5074998;28;20095;-67
2022/10/13 02:00:54;;;;;;;20.80;12.25;;;13.90;99.90;;;;;;5075491;28;20465;-67
2022/10/13 02:03:30;;;;;;;25.73;10.93;;;13.80;99.90;;;;;;5074738;28;20036;-67
2022/10/13 02:06:19;;;;;;;17.92;11.02;;;13.90;99.90;;;;;;5075277;28;20082;-67
2022/10/13 02:09:22;;;;;;;25.83;11.52;;;13.90;99.90;;;;;;5075053;28;20377;-67
2022/10/13 02:11:58;;;;;;;23.38;12.48;;;13.80;99.90;;;;;;5030712;28;20041;-67
2022/10/13 02:14:28;;;;;;;22.65;12.10;;;13.80;99.90;;;;;;5074804;28;20103;-68
2022/10/13 02:16:58;;;;;;;26.83;11.80;;;13.80;99.90;;;;;;5074861;28;20111;-67
2022/10/13 02:19:24;;;;;;;23.55;11.48;;;13.70;99.90;;;;;;5074807;28;20035;-67
2022/10/13 02:21:52;;;;;;;23.33;11.45;;;13.70;99.90;;;;;;5075114;28;20470;-67
2022/10/13 02:24:18;;;;;;;19.73;11.52;;;13.60;99.90;;;;;;5074896;28;20103;-67
2022/10/13 02:26:44;;;;;;;25.95;11.75;;;13.50;99.90;;;;;;5074715;28;20029;-67
2022/10/13 02:29:15;;;;;;;25.23;11.63;;;13.60;99.90;;;;;;5074646;28;20067;-67
2022/10/13 02:31:44;;;;;;;23.58;10.70;;;13.60;99.90;;;;;;5056881;28;20076;-67
2022/10/13 02:34:10;;;;;;;27.42;11.95;;;13.60;99.90;;;;;;5074643;28;20032;-67
2022/10/13 02:36:39;;;;;;;20.58;11.48;;;13.80;99.90;;;;;;5074752;28;20083;-67
2022/10/13 02:39:09;;;;;;;20.30;11.35;;;13.80;99.90;;;;;;5073797;28;20078;-67
2022/10/13 02:41:35;;;;;;;23.27;11.30;;;13.90;99.90;;;;;;5074753;28;20370;-67
2022/10/13 02:44:01;;;;;;;20.55;10.70;;;14.00;99.90;;;;;;5074470;28;20028;-67
2022/10/13 02:46:33;;;;;;;20.98;11.32;;;13.70;99.90;;;;;;5074245;28;20082;-67
2022/10/13 02:48:59;;;;;;;23.83;11.88;;;13.80;99.90;;;;;;5074195;28;20029;-67
2022/10/13 02:51:27;;;;;;;23.00;11.10;;;13.90;99.90;;;;;;5074448;28;20032;-67
2022/10/13 02:53:53;;;;;;;23.38;10.73;;;13.90;99.90;;;;;;5074272;28;20123;-67
2022/10/13 02:56:18;;;;;;;22.23;10.52;;;13.80;99.90;;;;;;5074583;28;20025;-67
2022/10/13 02:58:44;;;;;;;22.50;11.18;;;13.80;99.90;;;;;;5074306;28;20038;-67
2022/10/13 03:01:12;;;;;;;22.20;11.00;;;13.90;99.90;;;;;;5074045;28;20029;-67
2022/10/13 03:03:39;;;;;;;25.90;10.77;;;13.70;99.90;;;;;;5073985;28;20074;-67
2022/10/13 03:06:05;;;;;;;19.00;11.07;;;13.80;99.90;;;;;;5074164;28;20481;-67
2022/10/13 03:08:33;;;;;;;25.77;10.57;;;13.70;99.90;;;;;;5056029;28;20016;-67
2022/10/13 03:10:59;;;;;;;28.35;11.20;;;13.80;99.90;;;;;;5074045;28;20048;-67
2022/10/13 03:13:24;;;;;;;22.70;10.55;;;13.90;99.90;;;;;;5073814;28;20025;-67
2022/10/13 03:15:50;;;;;;;20.77;10.43;;;13.80;99.90;;;;;;5073503;28;20402;-67
2022/10/13 03:18:16;;;;;;;23.88;10.90;;;13.80;99.90;;;;;;5073923;28;20393;-67
2022/10/13 03:20:42;;;;;;;17.38;10.18;;;13.80;99.90;;;;;;5073588;28;20074;-67
2022/10/13 03:23:08;;;;;;;22.60;11.60;;;13.80;99.90;;;;;;5055898;28;20044;-67
2022/10/13 03:25:34;;;;;;;20.92;11.02;;;13.70;99.90;;;;;;5073075;28;20043;-67
2022/10/13 03:28:00;;;;;;;27.17;11.30;;;13.70;99.90;;;;;;5073419;28;20036;-68
2022/10/13 03:30:26;;;;;;;26.80;11.40;;;13.70;99.90;;;;;;5055095;28;20032;-67
2022/10/13 03:32:52;;;;;;;22.30;11.35;;;13.60;99.90;;;;;;5073580;28;20063;-67
2022/10/13 03:35:18;;;;;;;27.05;11.63;;;13.60;99.90;;;;;;5073194;28;20028;-68
2022/10/13 03:37:44;;;;;;;23.33;10.70;;;13.60;99.90;;;;;;5073316;28;20040;-67
2022/10/13 03:40:10;;;;;;;25.35;11.13;;;13.60;99.90;;;;;;5073304;28;20024;-67
2022/10/13 03:42:36;;;;;;;28.52;11.52;;;13.60;99.90;;;;;;5073024;28;20028;-67
2022/10/13 03:45:05;;;;;;;25.40;10.77;;;13.60;99.90;;;;;;5073044;28;20024;-68
2022/10/13 03:47:35;;;;;;;26.60;11.18;;;13.40;99.90;;;;;;5073236;28;20032;-68
2022/10/13 03:50:02;;;;;;;24.95;11.02;;;13.40;99.90;;;;;;5072365;28;20025;-68
2022/10/13 03:52:28;;;;;;;21.00;10.80;;;13.30;99.90;;;;;;5073174;28;20013;-67
2022/10/13 03:54:54;;;;;;;28.10;11.27;;;13.30;99.90;;;;;;5073173;28;20029;-68
2022/10/13 03:57:19;;;;;;;20.30;11.27;;;13.40;99.90;;;;;;5072708;28;20063;-67
2022/10/13 03:59:45;;;;;;;22.73;11.43;;;13.40;99.90;;;;;;5073188;28;20021;-67
2022/10/13 04:02:11;;;;;;;21.10;11.48;;;13.30;99.90;;;;;;5072952;28;20046;-67
2022/10/13 04:04:37;;;;;;;26.73;11.55;;;13.40;99.90;;;;;;5072966;28;20029;-67
2022/10/13 04:07:03;;;;;;;23.52;11.27;;;13.50;99.90;;;;;;5072712;28;20043;-67
2022/10/13 04:09:29;;;;;;;20.83;11.20;;;13.50;99.90;;;;;;5072749;28;20016;-67
2022/10/13 04:11:55;;;;;;;25.70;12.35;;;13.50;99.90;;;;;;5072427;28;20032;-67
2022/10/13 04:14:20;;;;;;;28.00;12.15;;;13.70;99.90;;;;;;5072809;28;20020;-67
2022/10/13 04:16:46;;;;;;;27.73;12.00;;;13.70;99.90;;;;;;5072638;28;20204;-67
2022/10/13 04:19:14;;;;;;;23.20;12.30;;;13.60;99.90;;;;;;5054683;28;20473;-67
2022/10/13 04:21:40;;;;;;;24.52;11.93;;;13.70;99.90;;;;;;5072755;28;20028;-67
2022/10/13 04:24:07;;;;;;;23.50;11.52;;;13.70;99.90;;;;;;5072546;28;20028;-68
2022/10/13 04:26:35;;;;;;;19.30;10.77;;;13.70;99.90;;;;;;5072259;28;20457;-67
2022/10/13 04:29:07;;;;;;;19.38;11.75;;;13.50;99.90;;;;;;5072446;28;20059;-67
2022/10/13 04:31:33;;;;;;;21.63;11.20;;;13.40;99.90;;;;;;5072610;28;20029;-67
2022/10/13 04:33:59;;;;;;;21.25;11.02;;;13.40;99.90;;;;;;5072581;28;20020;-68
2022/10/13 04:36:25;;;;;;;21.55;11.82;;;13.50;99.90;;;;;;5054500;28;20443;-68
2022/10/13 04:38:53;;;;;;;16.20;10.35;;;13.50;99.90;;;;;;5072380;28;20036;-71
2022/10/13 04:41:19;;;;;;;22.60;11.57;;;13.30;99.90;;;;;;5072233;28;20032;-70
2022/10/13 04:43:49;;;;;;;23.42;12.27;;;13.40;99.90;;;;;;5072663;28;20043;-73
2022/10/13 04:46:18;;;;;;;20.73;12.07;;;13.30;99.90;;;;;;5072371;28;20027;-68
2022/10/13 04:48:45;;;;;;;33.72;12.77;;;13.40;99.90;;;;;;5072715;28;20024;-68
2022/10/13 04:51:13;;;;;;;24.50;12.63;;;13.60;99.90;;;;;;5072447;28;20056;-68
2022/10/13 04:53:39;;;;;;;26.85;11.95;;;13.70;99.90;;;;;;5054573;28;20420;-67
2022/10/13 04:56:12;;;;;;;32.67;12.10;;;13.60;99.90;;;;;;5072435;28;20126;-67
2022/10/13 04:58:39;;;;;;;27.00;13.48;;;13.50;99.90;;;;;;5072522;28;20564;-67
2022/10/13 05:01:07;;;;;;;29.17;12.60;;;13.50;99.90;;;;;;5073535;28;20027;-67
2022/10/13 05:03:33;;;;;;;26.27;14.07;;;13.40;99.90;;;;;;5076251;28;20020;-68
2022/10/13 05:06:00;;;;;;;27.10;13.50;;;13.30;99.90;;;;;;5076333;28;20031;-67
2022/10/13 05:08:26;;;;;;;29.05;14.43;;;13.40;99.90;;;;;;5076001;28;20533;-67
2022/10/13 05:10:56;;;;;;;28.02;14.70;;;13.40;99.90;;;;;;5076310;28;20096;-67
2022/10/13 05:13:23;;;;;;;27.38;13.57;;;13.40;99.90;;;;;;5076050;28;20473;-68
2022/10/13 05:15:49;;;;;;;21.85;14.48;;;13.40;99.90;;;;;;5076202;28;20013;-67
2022/10/13 05:18:17;;;;;;;27.98;14.65;;;13.50;99.90;;;;;;5057754;28;20442;-67
2022/10/13 05:20:43;;;;;;;22.00;13.95;;;13.30;99.90;;;;;;5076060;28;20027;-67
2022/10/13 05:23:09;;;;;;;29.10;15.30;;;13.50;99.90;;;;;;5076125;28;20389;-67
2022/10/13 05:25:36;;;;;;;26.50;14.35;;;13.40;99.90;;;;;;5075383;28;20098;-67
2022/10/13 05:28:04;;;;;;;29.25;15.15;;;13.40;99.90;;;;;;5075844;28;20139;-67
2022/10/13 05:30:30;;;;;;;28.63;16.02;;;13.30;99.90;;;;;;5075775;28;20497;-67
2022/10/13 05:32:59;;;;;;;30.63;15.73;;;13.40;99.90;;;;;;5075731;28;20071;-67
2022/10/13 05:35:26;;;;;;;39.35;16.88;;;13.50;99.90;;;;;;5075653;28;20473;-67
2022/10/13 05:37:52;;;;;;;31.13;16.63;;;13.40;99.90;;;;;;5057720;28;20081;-68
2022/10/13 05:40:20;;;;;;;32.03;15.60;;;13.50;99.90;;;;;;5075182;28;20112;-67
2022/10/13 05:42:48;;;;;;;36.47;17.35;;;13.70;99.90;;;;;;5075386;28;20457;-67
2022/10/13 05:45:15;;;;;;;39.88;17.38;;;13.70;99.90;;;;;;5075705;28;20028;-68
2022/10/13 05:47:41;;;;;;;30.30;17.60;;;13.80;99.90;;;;;;5075250;28;20535;-67
2022/10/13 05:50:07;;;;;;;36.08;17.17;;;13.70;99.90;;;;;;5064609;28;20123;-70
2022/10/13 05:52:33;;;;;;;35.20;16.90;;;13.60;99.90;;;;;;5056522;28;20035;-67
2022/10/13 05:55:02;;;;;;;33.97;17.23;;;13.70;99.90;;;;;;5070841;28;20103;-67
2022/10/13 05:57:41;;;;;;;38.70;17.08;;;13.70;99.90;;;;;;5069534;28;20123;-67
2022/10/13 06:00:14;;;;;;;34.45;17.38;;;13.60;99.90;;;;;;5074015;28;20035;-66
2022/10/13 06:03:08;;;;;;;37.95;18.20;;;13.60;99.90;;;;;;5074602;28;20033;-67
2022/10/13 06:05:35;;;;;;;40.25;17.30;;;13.70;99.90;;;;;;5037242;28;20060;-70
2022/10/13 06:08:01;;;;;;;42.22;18.98;;;13.70;99.90;;;;;;5049239;28;20043;-68
2022/10/13 06:10:27;;;;;;;33.28;17.65;;;13.50;99.90;;;;;;5073515;28;20025;-68
2022/10/13 06:12:53;;;;;;;39.08;18.17;;;13.70;99.90;;;;;;5073323;28;20082;-67
2022/10/13 06:15:19;;;;;;;34.03;18.67;;;13.70;99.90;;;;;;5073972;28;20047;-70
2022/10/13 06:17:44;;;;;;;34.97;18.25;;;13.50;99.90;;;;;;5074084;28;20036;-71
2022/10/13 06:20:10;;;;;;;32.25;19.00;;;13.50;99.90;;;;;;5064494;28;20036;-67
2022/10/13 06:22:37;;;;;;;42.72;19.02;;;13.50;99.90;;;;;;5069473;28;20082;-68
2022/10/13 06:25:05;;;;;;;31.10;18.48;;;13.70;99.90;;;;;;5073060;28;20035;-67
2022/10/13 06:27:31;;;;;;;31.45;18.83;;;13.60;99.90;;;;;;5073327;28;20194;-68
2022/10/13 06:29:58;;;;;;;37.92;18.60;;;13.50;99.90;;;;;;5073962;28;20392;-68
2022/10/13 06:32:24;;;;;;;37.90;19.77;;;13.50;99.90;;;;;;5073415;28;20032;-67
2022/10/13 06:34:50;;;;;;;32.72;18.38;;;13.50;99.90;;;;;;5067131;28;20036;-67
2022/10/13 06:37:16;;;;;;;39.88;19.42;;;13.60;99.90;;;;;;5073438;28;20044;-67
2022/10/13 06:39:41;;;;;;;35.38;18.95;;;13.60;99.90;;;;;;5074169;28;20021;-67
2022/10/13 06:42:07;;;;;;;36.53;18.88;;;13.70;99.90;;;;;;5073825;28;20024;-67
2022/10/13 06:44:36;;;;;;;33.35;18.73;;;13.60;99.90;;;;;;5070960;28;20104;-67
2022/10/13 06:47:04;;;;;;;32.80;17.55;;;13.70;99.90;;;;;;5073543;28;20178;-67
2022/10/13 06:49:29;;;;;;;36.63;19.00;;;13.50;99.90;;;;;;5072009;28;20017;-68
2022/10/13 06:51:55;;;;;;;31.60;17.63;;;13.60;99.90;;;;;;5074089;28;20035;-69
2022/10/13 06:54:21;;;;;;;32.50;17.55;;;13.60;99.90;;;;;;5074157;28;20032;-68
2022/10/13 06:56:47;;;;;;;38.75;18.33;;;13.50;99.90;;;;;;5073596;28;20044;-68
2022/10/13 06:59:13;;;;;;;40.67;17.83;;;13.60;99.90;;;;;;5072954;28;20033;-69
2022/10/13 07:01:39;;;;;;;47.60;19.50;;;13.80;99.90;;;;;;5074110;28;20036;-68
2022/10/13 07:04:07;;;;;;;34.65;18.27;;;13.70;99.90;;;;;;5074236;28;20431;-68
2022/10/13 07:06:33;;;;;;;34.22;17.42;;;13.70;99.90;;;;;;5073543;28;20064;-68
2022/10/13 07:09:03;;;;;;;36.55;18.67;;;13.70;99.90;;;;;;5073996;28;20472;-68
2022/10/13 07:11:29;;;;;;;32.63;17.13;;;13.80;99.90;;;;;;5074070;28;20536;-68
2022/10/13 07:13:55;;;;;;;29.05;17.63;;;13.70;99.90;;;;;;5073733;28;20020;-68
2022/10/13 07:16:21;;;;;;;29.90;17.60;;;13.60;99.90;;;;;;5055800;28;20024;-68
2022/10/13 07:18:47;;;;;;;32.38;18.45;;;13.70;99.90;;;;;;5055841;28;20020;-68
2022/10/13 07:21:13;;;;;;;30.10;16.73;;;13.70;99.90;;;;;;5073344;28;20028;-68
2022/10/13 07:23:39;;;;;;;39.85;19.17;;;13.80;99.90;;;;;;5073478;28;20025;-68
2022/10/13 07:26:10;;;;;;;33.58;19.27;;;13.80;99.90;;;;;;5073537;28;20060;-69
2022/10/13 07:28:36;;;;;;;46.95;20.65;;;13.80;99.90;;;;;;5073295;28;20032;-68
2022/10/13 07:31:17;;;;;;;40.88;19.50;;;13.60;99.90;;;;;;5073327;28;20075;-69
2022/10/13 07:33:45;;;;;;;28.08;18.33;;;13.70;99.90;;;;;;5073388;28;20027;-68
2022/10/13 07:36:12;;;;;;;28.60;17.25;;;13.80;99.90;;;;;;5055568;28;20533;-68
2022/10/13 07:38:38;;;;;;;33.45;18.02;;;13.80;99.90;;;;;;5073439;28;20492;-69
2022/10/13 07:41:08;;;;;;;37.60;17.20;;;13.80;99.90;;;;;;5073302;28;20024;-69
2022/10/13 07:43:34;;;;;;;36.53;16.38;;;13.90;99.90;;;;;;5073330;28;20036;-68
2022/10/13 07:46:04;;;;;;;33.03;16.42;;;13.90;99.90;;;;;;5073267;28;20020;-68
2022/10/13 07:48:30;;;;;;;29.95;16.33;;;13.80;99.90;;;;;;5073296;28;20028;-68
2022/10/13 07:51:06;;;;;;;34.22;16.80;;;13.90;99.90;;;;;;5072556;28;20035;-69
2022/10/13 07:53:34;;;;;;;31.97;17.63;;;13.90;99.90;;;;;;5073222;28;20024;-69
2022/10/13 07:56:04;;;;;;;31.40;16.55;;;14.00;99.90;;;;;;5073432;28;20036;-69
2022/10/13 07:58:30;;;;;;;25.73;16.65;;;13.70;99.90;;;;;;5073094;28;20036;-68
2022/10/13 08:01:00;;;;;;;40.00;18.08;;;13.80;99.90;;;;;;5054852;28;20484;-69
2022/10/13 08:03:27;;;;;;;30.77;16.63;;;14.00;99.90;;;;;;5072856;28;20029;-70
2022/10/13 08:05:53;;;;;;;27.45;17.52;;;14.00;99.90;;;;;;5072723;28;20108;-69
2022/10/13 08:08:20;;;;;;;35.38;17.00;;;14.10;99.90;;;;;;5072848;28;20020;-69
2022/10/13 08:10:46;;;;;;;30.20;16.42;;;13.80;99.90;;;;;;5073052;28;20537;-69
2022/10/13 08:13:12;;;;;;;32.75;17.10;;;13.90;99.90;;;;;;5072927;28;20358;-68
2022/10/13 08:15:42;;;;;;;31.35;17.95;;;14.00;99.90;;;;;;5072637;28;20086;-68
2022/10/13 08:18:10;;;;;;;37.58;17.02;;;14.20;99.90;;;;;;5072930;28;20123;-68
2022/10/13 08:20:44;;;;;;;33.67;17.63;;;14.10;99.90;;;;;;5072200;28;20020;-68
2022/10/13 08:23:11;;;;;;;29.67;16.98;;;14.10;99.90;;;;;;5055058;28;20489;-69
2022/10/13 08:25:42;;;;;;;32.08;15.95;;;14.20;99.90;;;;;;5072587;28;20035;-68
2022/10/13 08:28:21;;;;;;;32.00;15.07;;;14.20;99.90;;;;;;5072505;28;20408;-68
2022/10/13 08:30:47;;;;;;;34.38;15.88;;;14.20;99.90;;;;;;5072564;28;20029;-68
2022/10/13 08:33:12;;;;;;;37.03;16.13;;;14.10;99.90;;;;;;5072452;28;20039;-68
2022/10/13 08:35:38;;;;;;;38.10;16.55;;;14.20;99.90;;;;;;5071997;28;20032;-69
2022/10/13 08:38:05;;;;;;;46.65;15.82;;;14.10;99.90;;;;;;5072618;28;20040;-69
2022/10/13 08:40:30;;;;;;;38.13;15.52;;;14.20;99.90;;;;;;5072162;28;20048;-68
2022/10/13 08:42:56;;;;;;;50.78;16.42;;;14.20;99.90;;;;;;5072515;28;20027;-68
2022/10/13 08:45:26;;;;;;;30.00;16.98;;;14.20;99.90;;;;;;5072716;28;20033;-68
2022/10/13 08:47:58;;;;;;;34.42;17.02;;;14.20;99.90;;;;;;5072203;28;20024;-69
2022/10/13 08:50:32;;;;;;;29.88;15.38;;;14.20;99.90;;;;;;5072431;28;20477;-68
2022/10/13 08:53:11;;;;;;;44.60;16.23;;;14.00;99.90;;;;;;5072180;28;20037;-69
2022/10/13 08:55:55;;;;;;;23.10;15.05;;;14.20;99.90;;;;;;5072560;28;20037;-68
2022/10/13 08:58:25;;;;;;;26.38;14.57;;;14.20;99.90;;;;;;5072118;28;20454;-69
2022/10/13 09:00:59;;;;;;;34.80;15.93;;;14.10;99.90;;;;;;5072534;28;20036;-69
2022/10/13 09:03:28;;;;;;;25.08;14.45;;;14.40;99.90;;;;;;5071931;28;20025;-68
2022/10/13 09:06:20;;;;;;;37.47;14.90;;;14.30;99.90;;;;;;5072378;28;20024;-69
2022/10/13 09:09:03;;;;;;;34.17;15.73;;;14.30;99.90;;;;;;5072170;28;20032;-69
2022/10/13 09:11:37;;;;;;;34.20;15.85;;;14.30;99.90;;;;;;5072280;28;20060;-68
2022/10/13 09:14:28;;;;;;;27.88;14.70;;;14.50;99.90;;;;;;5072293;28;20025;-68
2022/10/13 09:16:57;;;;;;;41.42;15.57;;;14.50;99.90;;;;;;5071114;28;20523;-69
2022/10/13 09:19:26;;;;;;;34.90;14.02;;;14.50;99.90;;;;;;5072266;28;20045;-68
2022/10/13 09:22:11;;;;;;;31.83;14.43;;;14.40;99.90;;;;;;5072134;28;20036;-69
2022/10/13 09:24:37;;;;;;;26.33;13.75;;;14.40;99.90;;;;;;5072022;28;20103;-68
2022/10/13 09:27:10;;;;;;;23.55;13.48;;;14.50;99.90;;;;;;5053947;28;20503;-68
2022/10/13 09:29:38;;;;;;;34.35;14.40;;;14.60;99.90;;;;;;5071943;28;20027;-68
2022/10/13 09:32:19;;;;;;;24.42;13.00;;;14.50;99.90;;;;;;5072041;28;20440;-68
2022/10/13 09:34:45;;;;;;;22.05;13.05;;;14.60;99.90;;;;;;5072616;28;20485;-68
2022/10/13 09:37:23;;;;;;;27.60;12.57;;;14.60;99.90;;;;;;5072160;28;20040;-68
2022/10/13 09:40:20;;;;;;;27.00;13.05;;;14.30;99.90;;;;;;5072223;28;20074;-68
2022/10/13 09:42:53;;;;;;;29.23;12.20;;;14.20;99.90;;;;;;5071793;28;20028;-68
2022/10/13 09:45:23;;;;;;;24.05;12.15;;;14.20;99.90;;;;;;5071724;28;20469;-68
2022/10/13 09:48:04;;;;;;;33.05;13.93;;;14.20;99.90;;;;;;5072178;28;20040;-68
2022/10/13 09:50:32;;;;;;;19.00;11.10;;;14.40;99.90;;;;;;5075328;28;20044;-68
2022/10/13 09:53:30;;;;;;;25.35;12.57;;;14.50;99.90;;;;;;5057207;28;20155;-68
2022/10/13 09:56:17;;;;;;;23.25;11.43;;;14.60;99.90;;;;;;5075412;28;20035;-70
2022/10/13 09:58:54;;;;;;;25.90;12.63;;;14.50;99.90;;;;;;5044206;28;20064;-69
2022/10/13 10:01:30;;;;;;;32.55;13.18;;;14.50;99.90;;;;;;5074796;28;20475;-72
2022/10/13 10:03:56;;;;;;;37.88;12.82;;;14.60;99.90;;;;;;5075271;28;20029;-68
2022/10/13 10:06:22;;;;;;;24.15;12.48;;;14.70;99.90;;;;;;5075371;28;20024;-68
2022/10/13 10:09:15;;;;;;;20.38;12.35;;;14.70;99.90;;;;;;5074998;28;20048;-68
2022/10/13 10:11:44;;;;;;;29.08;14.73;;;14.80;99.90;;;;;;5075181;28;20427;-69
2022/10/13 10:14:20;;;;;;;29.55;13.05;;;14.90;99.90;;;;;;5075075;28;20062;-69
2022/10/13 10:17:00;;;;;;;27.08;12.65;;;15.00;99.90;;;;;;5075083;28;20063;-68
2022/10/13 10:19:43;;;;;;;25.10;12.40;;;15.00;99.90;;;;;;5074941;28;20036;-68
2022/10/13 10:22:33;;;;;;;24.75;11.98;;;14.90;99.90;;;;;;5074826;28;20409;-68
2022/10/13 10:25:24;;;;;;;24.15;12.25;;;14.90;99.90;;;;;;5074703;28;20390;-69
2022/10/13 10:27:56;;;;;;;22.95;12.27;;;15.00;99.90;;;;;;5063353;28;20385;-68
2022/10/13 10:30:23;;;;;;;23.17;11.70;;;14.90;99.90;;;;;;5074317;28;20031;-68
2022/10/13 10:33:00;;;;;;;18.30;10.77;;;15.00;99.90;;;;;;5074862;28;20025;-69
2022/10/13 10:35:35;;;;;;;24.67;11.88;;;14.90;99.90;;;;;;5074457;28;20025;-69
2022/10/13 10:38:23;;;;;;;24.90;11.38;;;15.10;99.90;;;;;;5056647;28;20059;-68
2022/10/13 10:41:00;;;;;;;20.55;11.80;;;15.20;99.90;;;;;;5074414;28;20028;-68
2022/10/13 10:44:08;;;;;;;21.80;11.75;;;15.20;99.90;;;;;;5074005;28;20036;-69
2022/10/13 10:46:37;;;;;;;23.83;12.50;;;15.10;99.90;;;;;;4993004;28;20027;-69
2022/10/13 10:49:31;;;;;;;20.38;12.00;;;14.90;99.90;;;;;;5063024;28;20068;-69
2022/10/13 10:52:00;;;;;;;28.65;12.35;;;14.80;99.90;;;;;;5055927;28;20097;-68
2022/10/13 10:54:45;;;;;;;22.70;12.40;;;14.80;99.90;;;;;;5074190;28;20039;-68
2022/10/13 10:57:19;;;;;;;28.67;12.10;;;14.90;99.90;;;;;;5073977;28;20048;-68
2022/10/13 11:00:05;;;;;;;23.52;13.05;;;14.90;99.90;;;;;;5055415;28;20047;-68
2022/10/13 11:02:58;;;;;;;22.85;13.10;;;14.90;99.90;;;;;;5074108;28;20454;-68
2022/10/13 11:05:24;;;;;;;28.95;12.77;;;14.80;99.90;;;;;;5073684;28;20066;-68
2022/10/13 11:07:49;;;;;;;19.77;12.25;;;14.50;99.90;;;;;;5074159;28;20432;-69
2022/10/13 11:10:20;;;;;;;19.17;13.02;;;14.40;99.90;;;;;;5073555;28;20052;-68
2022/10/13 11:12:45;;;;;;;25.27;14.18;;;14.50;99.90;;;;;;5073529;28;20039;-68
2022/10/13 11:15:25;;;;;;;23.42;12.63;;;14.40;99.90;;;;;;5073723;28;20021;-68
2022/10/13 11:17:51;;;;;;;24.55;13.68;;;14.50;99.90;;;;;;5055948;28;20032;-68
2022/10/13 11:20:17;;;;;;;25.92;12.98;;;14.50;99.90;;;;;;5073316;28;20385;-69
2022/10/13 11:23:02;;;;;;;29.38;14.18;;;14.70;99.90;;;;;;5073735;28;20028;-69
2022/10/13 11:25:38;;;;;;;23.65;13.55;;;14.80;99.90;;;;;;5054994;28;20086;-69
2022/10/13 11:28:19;;;;;;;23.92;14.00;;;14.80;99.90;;;;;;5073235;28;20474;-68
2022/10/13 11:30:51;;;;;;;25.73;13.55;;;14.90;99.90;;;;;;5073390;28;20070;-68
2022/10/13 11:33:50;;;;;;;30.65;13.55;;;14.80;99.90;;;;;;5073410;28;20037;-68
2022/10/13 11:36:31;;;;;;;31.73;14.27;;;14.60;99.90;;;;;;5073050;28;20116;-68
2022/10/13 11:39:05;;;;;;;28.23;13.52;;;14.60;99.90;;;;;;5073278;28;20032;-68
2022/10/13 11:41:41;;;;;;;26.52;14.52;;;14.60;99.90;;;;;;5073151;28;20036;-68
2022/10/13 11:44:20;;;;;;;21.60;14.10;;;14.60;99.90;;;;;;5073124;28;20032;-68
2022/10/13 11:47:29;;;;;;;22.42;13.60;;;14.60;99.90;;;;;;5073290;28;20530;-68
2022/10/13 11:50:01;;;;;;;20.95;13.38;;;14.70;99.90;;;;;;5061243;28;20020;-68
2022/10/13 11:52:32;;;;;;;;;;;14.60;99.90;;;;;;5055517;28;20388;-68
2022/10/13 11:55:09;;;;;;;25.10;13.80;;;14.40;99.90;;;;;;5072865;28;19915;-69
2022/10/13 11:57:35;;;;;;;22.00;14.50;;;14.40;99.90;;;;;;5072735;28;20048;-69
2022/10/13 12:00:01;;;;;;;19.23;13.02;;;14.40;99.90;;;;;;5072835;28;20012;-68
2022/10/13 12:02:51;;;;;;;29.50;15.25;;;14.40;99.90;;;;;;5072745;28;20124;-69
2022/10/13 12:05:20;;;;;;;30.13;14.63;;;14.60;99.90;;;;;;5072776;28;20057;-69
2022/10/13 12:07:48;;;;;;;22.25;14.10;;;14.50;99.90;;;;;;5066840;28;20389;-68
2022/10/13 12:10:32;;;;;;;17.75;11.55;;;14.70;99.90;;;;;;5071631;28;20027;-68
2022/10/13 12:12:59;;;;;;;20.92;12.82;;;14.50;99.90;;;;;;5064623;28;20171;-69
2022/10/13 12:15:38;;;;;;;21.15;13.57;;;14.40;99.90;;;;;;5072565;28;20036;-68
2022/10/13 12:18:34;;;;;;;24.17;13.40;;;14.60;99.90;;;;;;5072578;28;20420;-70
2022/10/13 12:21:03;;;;;;;27.50;12.80;;;15.00;99.90;;;;;;5060374;28;20107;-68
2022/10/13 12:23:31;;;;;;;23.05;13.43;;;14.70;99.90;;;;;;5072387;28;20090;-70
2022/10/13 12:25:58;;;;;;;19.85;13.63;;;14.70;99.90;;;;;;5072447;28;20036;-69
2022/10/13 12:28:30;;;;;;;24.92;13.57;;;14.90;99.90;;;;;;5072420;28;20048;-69
2022/10/13 12:30:58;;;;;;;22.02;12.70;;;15.30;99.90;;;;;;5072569;28;20033;-68
2022/10/13 12:33:31;;;;;;;18.58;12.73;;;15.50;99.90;;;;;;5072339;28;20017;-72
2022/10/13 12:36:17;;;;;;;18.88;11.63;;;15.40;99.90;;;;;;5069747;28;20092;-71
2022/10/13 12:38:48;;;;;;;22.17;13.63;;;14.90;99.90;;;;;;5054743;28;20050;-70
2022/10/13 12:41:37;;;;;;;19.25;12.80;;;15.00;99.90;;;;;;5067083;28;20024;-69
2022/10/13 12:44:04;;;;;;;21.40;13.23;;;15.00;99.90;;;;;;5054575;28;20056;-69
2022/10/13 12:46:51;;;;;;;26.45;13.38;;;15.20;99.90;;;;;;5072561;28;20023;-70
2022/10/13 12:49:36;;;;;;;29.67;12.85;;;15.50;99.90;;;;;;5054536;28;20068;-72